sensor_id;sensor_type;location;lat;lon;timestamp;P1;durP1;ratioP1;P2;durP2;ratioP2
51883;SDS011;37915;53.254;6.598;2022-08-18T00:02:24;13.15;;;4.45;;
51883;SDS011;37915;53.254;6.598;2022-08-18T00:07:21;9.90;;;4.63;;
51883;SDS011;37915;53.254;6.598;2022-08-18T00:09:49;8.38;;;4.60;;
51883;SDS011;37915;53.254;6.598;2022-08-18T00:12:17;9.43;;;4.70;;
51883;SDS011;37915;53.254;6.598;2022-08-18T00:14:45;12.55;;;4.78;;
51883;SDS011;37915;53.254;6.598;2022-08-18T00:17:11;10.95;;;4.78;;
51883;SDS011;37915;53.254;6.598;2022-08-18T00:19:38;12.85;;;4.40;;
51883;SDS011;37915;53.254;6.598;2022-08-18T00:22:04;14.07;;;4.25;;
51883;SDS011;37915;53.254;6.598;2022-08-18T00:24:30;7.80;;;4.40;;
51883;SDS011;37915;53.254;6.598;2022-08-18T00:26:56;10.57;;;4.72;;
51883;SDS011;37915;53.254;6.598;2022-08-18T00:29:22;9.70;;;5.18;;
51883;SDS011;37915;53.254;6.598;2022-08-18T00:31:48;12.60;;;5.20;;
51883;SDS011;37915;53.254;6.598;2022-08-18T00:34:13;13.10;;;5.22;;
51883;SDS011;37915;53.254;6.598;2022-08-18T00:36:39;10.23;;;4.55;;
51883;SDS011;37915;53.254;6.598;2022-08-18T00:39:05;9.05;;;4.75;;
51883;SDS011;37915;53.254;6.598;2022-08-18T00:41:31;12.77;;;4.90;;
51883;SDS011;37915;53.254;6.598;2022-08-18T00:43:57;14.38;;;5.10;;
51883;SDS011;37915;53.254;6.598;2022-08-18T00:46:28;9.27;;;4.75;;
51883;SDS011;37915;53.254;6.598;2022-08-18T00:48:57;11.25;;;4.88;;
51883;SDS011;37915;53.254;6.598;2022-08-18T00:51:44;15.40;;;5.25;;
51883;SDS011;37915;53.254;6.598;2022-08-18T00:54:18;12.00;;;5.00;;
51883;SDS011;37915;53.254;6.598;2022-08-18T00:56:49;10.80;;;5.35;;
51883;SDS011;37915;53.254;6.598;2022-08-18T01:02:36;10.93;;;4.68;;
51883;SDS011;37915;53.254;6.598;2022-08-18T01:07:47;15.15;;;5.13;;
51883;SDS011;37915;53.254;6.598;2022-08-18T01:10:15;14.65;;;5.82;;
51883;SDS011;37915;53.254;6.598;2022-08-18T01:12:44;12.98;;;5.63;;
51883;SDS011;37915;53.254;6.598;2022-08-18T01:15:12;13.68;;;6.10;;
51883;SDS011;37915;53.254;6.598;2022-08-18T01:17:41;10.43;;;4.82;;
51883;SDS011;37915;53.254;6.598;2022-08-18T01:23:58;11.95;;;5.35;;
51883;SDS011;37915;53.254;6.598;2022-08-18T01:26:28;14.80;;;5.75;;
51883;SDS011;37915;53.254;6.598;2022-08-18T01:29:05;14.98;;;5.43;;
51883;SDS011;37915;53.254;6.598;2022-08-18T01:34:14;16.10;;;5.78;;
51883;SDS011;37915;53.254;6.598;2022-08-18T01:36:40;13.32;;;5.90;;
51883;SDS011;37915;53.254;6.598;2022-08-18T01:39:09;17.65;;;5.85;;
51883;SDS011;37915;53.254;6.598;2022-08-18T01:41:37;17.58;;;5.93;;
51883;SDS011;37915;53.254;6.598;2022-08-18T01:44:04;14.38;;;5.93;;
51883;SDS011;37915;53.254;6.598;2022-08-18T01:46:33;17.08;;;5.93;;
51883;SDS011;37915;53.254;6.598;2022-08-18T01:49:00;13.68;;;6.45;;
51883;SDS011;37915;53.254;6.598;2022-08-18T01:51:28;17.42;;;6.68;;
51883;SDS011;37915;53.254;6.598;2022-08-18T01:53:56;14.30;;;6.05;;
51883;SDS011;37915;53.254;6.598;2022-08-18T01:56:24;13.80;;;6.47;;
51883;SDS011;37915;53.254;6.598;2022-08-18T01:58:53;17.55;;;6.60;;
51883;SDS011;37915;53.254;6.598;2022-08-18T02:01:20;10.30;;;5.68;;
51883;SDS011;37915;53.254;6.598;2022-08-18T02:03:47;18.75;;;6.35;;
51883;SDS011;37915;53.254;6.598;2022-08-18T02:06:18;12.73;;;6.28;;
51883;SDS011;37915;53.254;6.598;2022-08-18T02:08:44;15.57;;;6.45;;
51883;SDS011;37915;53.254;6.598;2022-08-18T02:11:11;12.50;;;5.88;;
51883;SDS011;37915;53.254;6.598;2022-08-18T02:13:37;14.32;;;6.85;;
51883;SDS011;37915;53.254;6.598;2022-08-18T02:16:04;15.10;;;6.30;;
51883;SDS011;37915;53.254;6.598;2022-08-18T02:18:32;13.77;;;6.15;;
51883;SDS011;37915;53.254;6.598;2022-08-18T02:21:05;14.05;;;6.13;;
51883;SDS011;37915;53.254;6.598;2022-08-18T02:23:42;15.35;;;5.50;;
51883;SDS011;37915;53.254;6.598;2022-08-18T02:26:10;11.68;;;5.65;;
51883;SDS011;37915;53.254;6.598;2022-08-18T02:28:39;16.45;;;6.70;;
51883;SDS011;37915;53.254;6.598;2022-08-18T02:31:05;21.77;;;6.50;;
51883;SDS011;37915;53.254;6.598;2022-08-18T02:33:33;17.70;;;6.50;;
51883;SDS011;37915;53.254;6.598;2022-08-18T02:35:59;14.30;;;4.90;;
51883;SDS011;37915;53.254;6.598;2022-08-18T02:38:25;14.73;;;6.03;;
51883;SDS011;37915;53.254;6.598;2022-08-18T02:40:58;15.25;;;5.40;;
51883;SDS011;37915;53.254;6.598;2022-08-18T02:43:25;13.35;;;5.20;;
51883;SDS011;37915;53.254;6.598;2022-08-18T02:45:52;14.43;;;5.65;;
51883;SDS011;37915;53.254;6.598;2022-08-18T02:48:18;14.68;;;4.85;;
51883;SDS011;37915;53.254;6.598;2022-08-18T02:51:14;21.13;;;5.68;;
51883;SDS011;37915;53.254;6.598;2022-08-18T02:53:43;12.77;;;5.50;;
51883;SDS011;37915;53.254;6.598;2022-08-18T02:56:19;11.82;;;5.20;;
51883;SDS011;37915;53.254;6.598;2022-08-18T03:01:30;14.00;;;5.28;;
51883;SDS011;37915;53.254;6.598;2022-08-18T03:03:59;14.35;;;5.57;;
51883;SDS011;37915;53.254;6.598;2022-08-18T03:06:25;15.35;;;5.55;;
51883;SDS011;37915;53.254;6.598;2022-08-18T03:08:52;12.43;;;5.85;;
51883;SDS011;37915;53.254;6.598;2022-08-18T03:11:19;12.05;;;5.30;;
51883;SDS011;37915;53.254;6.598;2022-08-18T03:13:47;13.05;;;5.43;;
51883;SDS011;37915;53.254;6.598;2022-08-18T03:16:13;17.17;;;5.15;;
51883;SDS011;37915;53.254;6.598;2022-08-18T03:18:43;12.07;;;5.65;;
51883;SDS011;37915;53.254;6.598;2022-08-18T03:21:15;10.48;;;5.60;;
51883;SDS011;37915;53.254;6.598;2022-08-18T03:23:43;14.52;;;6.00;;
51883;SDS011;37915;53.254;6.598;2022-08-18T03:26:10;14.40;;;5.32;;
51883;SDS011;37915;53.254;6.598;2022-08-18T03:28:38;17.02;;;6.55;;
51883;SDS011;37915;53.254;6.598;2022-08-18T03:31:06;11.82;;;5.47;;
51883;SDS011;37915;53.254;6.598;2022-08-18T03:33:33;13.00;;;5.90;;
51883;SDS011;37915;53.254;6.598;2022-08-18T03:36:18;11.60;;;6.13;;
51883;SDS011;37915;53.254;6.598;2022-08-18T03:38:49;12.68;;;6.28;;
51883;SDS011;37915;53.254;6.598;2022-08-18T03:41:17;11.63;;;6.00;;
51883;SDS011;37915;53.254;6.598;2022-08-18T03:43:44;14.30;;;6.50;;
51883;SDS011;37915;53.254;6.598;2022-08-18T03:46:11;14.23;;;6.22;;
51883;SDS011;37915;53.254;6.598;2022-08-18T03:48:39;11.27;;;6.15;;
51883;SDS011;37915;53.254;6.598;2022-08-18T03:51:06;9.93;;;5.93;;
51883;SDS011;37915;53.254;6.598;2022-08-18T03:53:34;16.08;;;6.30;;
51883;SDS011;37915;53.254;6.598;2022-08-18T03:56:05;19.48;;;6.43;;
51883;SDS011;37915;53.254;6.598;2022-08-18T03:58:33;12.13;;;5.93;;
51883;SDS011;37915;53.254;6.598;2022-08-18T04:00:59;10.68;;;6.43;;
51883;SDS011;37915;53.254;6.598;2022-08-18T04:03:27;14.45;;;5.95;;
51883;SDS011;37915;53.254;6.598;2022-08-18T04:05:53;8.98;;;5.90;;
51883;SDS011;37915;53.254;6.598;2022-08-18T04:08:20;12.73;;;5.78;;
51883;SDS011;37915;53.254;6.598;2022-08-18T04:10:45;11.82;;;5.55;;
51883;SDS011;37915;53.254;6.598;2022-08-18T04:13:11;8.38;;;5.68;;
51883;SDS011;37915;53.254;6.598;2022-08-18T04:15:37;13.93;;;5.63;;
51883;SDS011;37915;53.254;6.598;2022-08-18T04:18:02;13.48;;;6.07;;
51883;SDS011;37915;53.254;6.598;2022-08-18T04:20:30;13.07;;;5.70;;
51883;SDS011;37915;53.254;6.598;2022-08-18T04:22:58;15.10;;;5.85;;
51883;SDS011;37915;53.254;6.598;2022-08-18T04:25:24;11.07;;;5.60;;
51883;SDS011;37915;53.254;6.598;2022-08-18T04:27:51;12.20;;;5.80;;
51883;SDS011;37915;53.254;6.598;2022-08-18T04:30:22;9.13;;;5.00;;
51883;SDS011;37915;53.254;6.598;2022-08-18T04:32:48;11.93;;;6.03;;
51883;SDS011;37915;53.254;6.598;2022-08-18T04:35:14;12.77;;;5.28;;
51883;SDS011;37915;53.254;6.598;2022-08-18T04:37:40;12.30;;;5.57;;
51883;SDS011;37915;53.254;6.598;2022-08-18T04:40:08;9.52;;;5.00;;
51883;SDS011;37915;53.254;6.598;2022-08-18T04:42:34;11.30;;;5.25;;
51883;SDS011;37915;53.254;6.598;2022-08-18T04:45:00;13.23;;;5.75;;
51883;SDS011;37915;53.254;6.598;2022-08-18T04:47:26;10.77;;;5.07;;
51883;SDS011;37915;53.254;6.598;2022-08-18T04:49:51;11.15;;;6.03;;
51883;SDS011;37915;53.254;6.598;2022-08-18T04:52:17;12.13;;;5.43;;
51883;SDS011;37915;53.254;6.598;2022-08-18T04:55:01;14.88;;;5.93;;
51883;SDS011;37915;53.254;6.598;2022-08-18T04:57:27;9.85;;;6.15;;
51883;SDS011;37915;53.254;6.598;2022-08-18T04:59:55;9.88;;;5.25;;
51883;SDS011;37915;53.254;6.598;2022-08-18T05:02:22;10.32;;;5.63;;
51883;SDS011;37915;53.254;6.598;2022-08-18T05:04:48;10.52;;;5.55;;
51883;SDS011;37915;53.254;6.598;2022-08-18T05:07:15;10.43;;;5.22;;
51883;SDS011;37915;53.254;6.598;2022-08-18T05:09:43;8.95;;;5.68;;
51883;SDS011;37915;53.254;6.598;2022-08-18T05:12:09;13.48;;;5.97;;
51883;SDS011;37915;53.254;6.598;2022-08-18T05:14:37;11.57;;;5.78;;
51883;SDS011;37915;53.254;6.598;2022-08-18T05:17:08;11.85;;;5.38;;
51883;SDS011;37915;53.254;6.598;2022-08-18T05:19:34;11.65;;;5.32;;
51883;SDS011;37915;53.254;6.598;2022-08-18T05:22:00;16.23;;;5.72;;
51883;SDS011;37915;53.254;6.598;2022-08-18T05:24:27;11.15;;;5.13;;
51883;SDS011;37915;53.254;6.598;2022-08-18T05:26:54;9.40;;;5.32;;
51883;SDS011;37915;53.254;6.598;2022-08-18T05:29:20;14.63;;;5.28;;
51883;SDS011;37915;53.254;6.598;2022-08-18T05:31:47;13.98;;;5.18;;
51883;SDS011;37915;53.254;6.598;2022-08-18T05:34:14;10.80;;;5.32;;
51883;SDS011;37915;53.254;6.598;2022-08-18T05:36:49;11.60;;;4.93;;
51883;SDS011;37915;53.254;6.598;2022-08-18T05:44:34;9.63;;;5.40;;
51883;SDS011;37915;53.254;6.598;2022-08-18T05:47:15;10.93;;;5.25;;
51883;SDS011;37915;53.254;6.598;2022-08-18T05:49:46;13.00;;;6.07;;
51883;SDS011;37915;53.254;6.598;2022-08-18T05:52:56;12.60;;;5.70;;
51883;SDS011;37915;53.254;6.598;2022-08-18T05:55:14;13.65;;;5.45;;
51883;SDS011;37915;53.254;6.598;2022-08-18T05:58:04;8.75;;;4.78;;
51883;SDS011;37915;53.254;6.598;2022-08-18T06:00:39;10.13;;;5.05;;
51883;SDS011;37915;53.254;6.598;2022-08-18T06:03:18;9.43;;;4.57;;
51883;SDS011;37915;53.254;6.598;2022-08-18T06:06:00;12.45;;;4.75;;
51883;SDS011;37915;53.254;6.598;2022-08-18T06:08:32;11.98;;;4.93;;
51883;SDS011;37915;53.254;6.598;2022-08-18T06:11:06;10.55;;;4.50;;
51883;SDS011;37915;53.254;6.598;2022-08-18T06:13:36;7.20;;;4.03;;
51883;SDS011;37915;53.254;6.598;2022-08-18T06:16:04;11.07;;;4.45;;
51883;SDS011;37915;53.254;6.598;2022-08-18T06:18:56;10.05;;;3.97;;
51883;SDS011;37915;53.254;6.598;2022-08-18T06:24:35;10.00;;;3.83;;
51883;SDS011;37915;53.254;6.598;2022-08-18T06:30:10;9.38;;;3.65;;
51883;SDS011;37915;53.254;6.598;2022-08-18T06:35:49;10.52;;;3.55;;
51883;SDS011;37915;53.254;6.598;2022-08-18T06:39:10;16.25;;;4.45;;
51883;SDS011;37915;53.254;6.598;2022-08-18T06:52:57;14.50;;;3.58;;
51883;SDS011;37915;53.254;6.598;2022-08-18T06:58:19;10.50;;;3.95;;
51883;SDS011;37915;53.254;6.598;2022-08-18T07:03:17;8.00;;;3.33;;
51883;SDS011;37915;53.254;6.598;2022-08-18T07:08:30;8.02;;;3.15;;
51883;SDS011;37915;53.254;6.598;2022-08-18T07:13:41;9.63;;;3.58;;
51883;SDS011;37915;53.254;6.598;2022-08-18T07:18:48;10.38;;;3.03;;
51883;SDS011;37915;53.254;6.598;2022-08-18T07:21:29;8.20;;;2.90;;
51883;SDS011;37915;53.254;6.598;2022-08-18T07:23:58;9.02;;;2.85;;
51883;SDS011;37915;53.254;6.598;2022-08-18T07:29:37;7.22;;;2.70;;
51883;SDS011;37915;53.254;6.598;2022-08-18T07:32:16;7.78;;;2.80;;
51883;SDS011;37915;53.254;6.598;2022-08-18T07:34:45;10.52;;;3.45;;
51883;SDS011;37915;53.254;6.598;2022-08-18T07:37:18;11.88;;;3.47;;
51883;SDS011;37915;53.254;6.598;2022-08-18T07:39:55;7.15;;;2.42;;
51883;SDS011;37915;53.254;6.598;2022-08-18T07:42:50;6.53;;;2.70;;
51883;SDS011;37915;53.254;6.598;2022-08-18T07:45:30;9.27;;;3.00;;
51883;SDS011;37915;53.254;6.598;2022-08-18T07:50:39;7.25;;;2.60;;
51883;SDS011;37915;53.254;6.598;2022-08-18T08:02:15;7.00;;;2.35;;
51883;SDS011;37915;53.254;6.598;2022-08-18T08:04:47;5.80;;;2.20;;
51883;SDS011;37915;53.254;6.598;2022-08-18T08:07:39;4.03;;;1.75;;
51883;SDS011;37915;53.254;6.598;2022-08-18T08:15:32;5.85;;;1.80;;
51883;SDS011;37915;53.254;6.598;2022-08-18T08:21:04;4.05;;;1.65;;
51883;SDS011;37915;53.254;6.598;2022-08-18T08:23:33;3.42;;;1.90;;
51883;SDS011;37915;53.254;6.598;2022-08-18T08:26:22;7.20;;;2.33;;
51883;SDS011;37915;53.254;6.598;2022-08-18T08:31:55;4.03;;;1.73;;
51883;SDS011;37915;53.254;6.598;2022-08-18T08:39:56;5.32;;;1.80;;
51883;SDS011;37915;53.254;6.598;2022-08-18T08:45:29;4.15;;;1.90;;
51883;SDS011;37915;53.254;6.598;2022-08-18T08:51:57;4.40;;;1.90;;
51883;SDS011;37915;53.254;6.598;2022-08-18T08:56:34;6.53;;;2.00;;
51883;SDS011;37915;53.254;6.598;2022-08-18T08:59:05;5.90;;;2.00;;
51883;SDS011;37915;53.254;6.598;2022-08-18T09:07:18;10.18;;;2.17;;
51883;SDS011;37915;53.254;6.598;2022-08-18T09:23:48;6.65;;;2.17;;
51883;SDS011;37915;53.254;6.598;2022-08-18T09:26:25;4.32;;;1.73;;
51883;SDS011;37915;53.254;6.598;2022-08-18T09:29:16;5.90;;;1.77;;
51883;SDS011;37915;53.254;6.598;2022-08-18T09:31:45;4.38;;;1.90;;
51883;SDS011;37915;53.254;6.598;2022-08-18T09:40:22;6.18;;;1.75;;
51883;SDS011;37915;53.254;6.598;2022-08-18T09:45:40;4.65;;;2.08;;
51883;SDS011;37915;53.254;6.598;2022-08-18T09:48:26;3.33;;;1.65;;
51883;SDS011;37915;53.254;6.598;2022-08-18T09:56:15;4.57;;;1.50;;
51883;SDS011;37915;53.254;6.598;2022-08-18T09:58:50;4.78;;;1.70;;
51883;SDS011;37915;53.254;6.598;2022-08-18T10:06:44;4.85;;;2.20;;
51883;SDS011;37915;53.254;6.598;2022-08-18T10:22:45;4.85;;;1.80;;
51883;SDS011;37915;53.254;6.598;2022-08-18T10:25:13;6.20;;;1.90;;
51883;SDS011;37915;53.254;6.598;2022-08-18T10:28:07;6.53;;;1.90;;
51883;SDS011;37915;53.254;6.598;2022-08-18T10:33:01;4.82;;;1.70;;
51883;SDS011;37915;53.254;6.598;2022-08-18T10:40:35;4.65;;;2.00;;
51883;SDS011;37915;53.254;6.598;2022-08-18T10:43:09;5.07;;;1.80;;
51883;SDS011;37915;53.254;6.598;2022-08-18T10:45:48;5.50;;;1.70;;
51883;SDS011;37915;53.254;6.598;2022-08-18T10:48:23;5.47;;;1.98;;
51883;SDS011;37915;53.254;6.598;2022-08-18T10:53:59;4.32;;;1.52;;
51883;SDS011;37915;53.254;6.598;2022-08-18T10:56:51;5.03;;;2.10;;
51883;SDS011;37915;53.254;6.598;2022-08-18T11:05:04;4.88;;;2.03;;
51883;SDS011;37915;53.254;6.598;2022-08-18T11:07:31;3.85;;;1.77;;
51883;SDS011;37915;53.254;6.598;2022-08-18T11:09:59;4.38;;;1.80;;
51883;SDS011;37915;53.254;6.598;2022-08-18T11:18:18;5.95;;;2.03;;
51883;SDS011;37915;53.254;6.598;2022-08-18T11:20:53;6.05;;;2.13;;
51883;SDS011;37915;53.254;6.598;2022-08-18T11:23:38;8.80;;;2.28;;
51883;SDS011;37915;53.254;6.598;2022-08-18T11:26:14;6.60;;;2.10;;
51883;SDS011;37915;53.254;6.598;2022-08-18T11:28:40;4.18;;;2.03;;
51883;SDS011;37915;53.254;6.598;2022-08-18T11:31:09;6.32;;;2.10;;
51883;SDS011;37915;53.254;6.598;2022-08-18T11:33:38;5.90;;;2.70;;
51883;SDS011;37915;53.254;6.598;2022-08-18T11:36:06;7.13;;;1.90;;
51883;SDS011;37915;53.254;6.598;2022-08-18T11:38:32;4.68;;;1.95;;
51883;SDS011;37915;53.254;6.598;2022-08-18T11:41:17;3.90;;;1.75;;
51883;SDS011;37915;53.254;6.598;2022-08-18T11:43:53;6.97;;;2.00;;
51883;SDS011;37915;53.254;6.598;2022-08-18T11:48:54;4.43;;;1.90;;
51883;SDS011;37915;53.254;6.598;2022-08-18T11:56:20;4.80;;;2.10;;
51883;SDS011;37915;53.254;6.598;2022-08-18T12:01:51;5.15;;;1.90;;
51883;SDS011;37915;53.254;6.598;2022-08-18T12:07:04;3.65;;;1.67;;
51883;SDS011;37915;53.254;6.598;2022-08-18T12:12:02;3.40;;;1.70;;
51883;SDS011;37915;53.254;6.598;2022-08-18T12:17:22;4.97;;;1.70;;
51883;SDS011;37915;53.254;6.598;2022-08-18T12:19:48;4.82;;;1.73;;
51883;SDS011;37915;53.254;6.598;2022-08-18T12:22:23;3.30;;;1.80;;
51883;SDS011;37915;53.254;6.598;2022-08-18T12:24:55;3.95;;;1.58;;
51883;SDS011;37915;53.254;6.598;2022-08-18T12:27:21;3.33;;;1.80;;
51883;SDS011;37915;53.254;6.598;2022-08-18T12:29:49;3.53;;;1.58;;
51883;SDS011;37915;53.254;6.598;2022-08-18T12:32:17;4.00;;;1.63;;
51883;SDS011;37915;53.254;6.598;2022-08-18T12:34:46;4.68;;;1.33;;
51883;SDS011;37915;53.254;6.598;2022-08-18T12:37:20;4.35;;;1.60;;
51883;SDS011;37915;53.254;6.598;2022-08-18T12:39:48;3.65;;;1.50;;
51883;SDS011;37915;53.254;6.598;2022-08-18T12:42:14;3.20;;;1.30;;
51883;SDS011;37915;53.254;6.598;2022-08-18T12:44:40;3.75;;;1.48;;
51883;SDS011;37915;53.254;6.598;2022-08-18T12:47:09;16.20;;;2.85;;
51883;SDS011;37915;53.254;6.598;2022-08-18T12:49:37;5.32;;;1.60;;
51883;SDS011;37915;53.254;6.598;2022-08-18T12:52:03;5.85;;;1.40;;
51883;SDS011;37915;53.254;6.598;2022-08-18T12:54:30;4.25;;;1.58;;
51883;SDS011;37915;53.254;6.598;2022-08-18T12:56:57;2.83;;;1.40;;
51883;SDS011;37915;53.254;6.598;2022-08-18T12:59:23;3.28;;;1.50;;
51883;SDS011;37915;53.254;6.598;2022-08-18T13:33:02;3.50;;;1.65;;
51883;SDS011;37915;53.254;6.598;2022-08-18T13:35:28;3.10;;;1.67;;
51883;SDS011;37915;53.254;6.598;2022-08-18T13:37:54;4.60;;;1.45;;
51883;SDS011;37915;53.254;6.598;2022-08-18T13:40:20;3.50;;;1.40;;
51883;SDS011;37915;53.254;6.598;2022-08-18T13:42:46;3.28;;;1.52;;
51883;SDS011;37915;53.254;6.598;2022-08-18T13:45:18;3.53;;;1.73;;
51883;SDS011;37915;53.254;6.598;2022-08-18T13:47:46;5.10;;;1.70;;
51883;SDS011;37915;53.254;6.598;2022-08-18T13:50:13;3.03;;;1.52;;
51883;SDS011;37915;53.254;6.598;2022-08-18T13:52:40;4.40;;;1.63;;
51883;SDS011;37915;53.254;6.598;2022-08-18T13:55:08;3.67;;;1.70;;
51883;SDS011;37915;53.254;6.598;2022-08-18T13:57:37;3.45;;;1.42;;
51883;SDS011;37915;53.254;6.598;2022-08-18T14:00:05;2.95;;;1.50;;
51883;SDS011;37915;53.254;6.598;2022-08-18T14:02:35;3.87;;;1.60;;
51883;SDS011;37915;53.254;6.598;2022-08-18T14:05:01;2.92;;;1.50;;
51883;SDS011;37915;53.254;6.598;2022-08-18T14:07:26;2.75;;;1.50;;
51883;SDS011;37915;53.254;6.598;2022-08-18T14:09:52;3.53;;;1.40;;
51883;SDS011;37915;53.254;6.598;2022-08-18T14:12:20;3.67;;;1.50;;
51883;SDS011;37915;53.254;6.598;2022-08-18T14:14:48;3.70;;;1.50;;
51883;SDS011;37915;53.254;6.598;2022-08-18T14:17:15;2.92;;;1.20;;
51883;SDS011;37915;53.254;6.598;2022-08-18T14:19:40;3.88;;;1.55;;
51883;SDS011;37915;53.254;6.598;2022-08-18T14:22:24;3.50;;;1.50;;
51883;SDS011;37915;53.254;6.598;2022-08-18T14:25:09;3.92;;;1.30;;
51883;SDS011;37915;53.254;6.598;2022-08-18T14:27:53;3.17;;;1.23;;
51883;SDS011;37915;53.254;6.598;2022-08-18T14:30:19;2.90;;;1.42;;
51883;SDS011;37915;53.254;6.598;2022-08-18T14:32:45;4.13;;;1.30;;
51883;SDS011;37915;53.254;6.598;2022-08-18T14:35:11;3.42;;;1.23;;
51883;SDS011;37915;53.254;6.598;2022-08-18T14:37:39;3.97;;;1.55;;
51883;SDS011;37915;53.254;6.598;2022-08-18T14:40:06;2.72;;;1.30;;
51883;SDS011;37915;53.254;6.598;2022-08-18T14:42:32;4.43;;;1.70;;
51883;SDS011;37915;53.254;6.598;2022-08-18T14:44:59;5.07;;;1.40;;
51883;SDS011;37915;53.254;6.598;2022-08-18T14:47:25;3.80;;;1.80;;
51883;SDS011;37915;53.254;6.598;2022-08-18T14:49:51;2.17;;;1.00;;
51883;SDS011;37915;53.254;6.598;2022-08-18T14:52:18;2.45;;;1.30;;
51883;SDS011;37915;53.254;6.598;2022-08-18T14:54:46;3.10;;;1.20;;
51883;SDS011;37915;53.254;6.598;2022-08-18T14:57:12;2.78;;;1.48;;
51883;SDS011;37915;53.254;6.598;2022-08-18T14:59:39;3.35;;;1.35;;
51883;SDS011;37915;53.254;6.598;2022-08-18T15:02:05;3.08;;;1.35;;
51883;SDS011;37915;53.254;6.598;2022-08-18T15:04:33;3.65;;;1.50;;
51883;SDS011;37915;53.254;6.598;2022-08-18T15:06:59;3.53;;;1.15;;
51883;SDS011;37915;53.254;6.598;2022-08-18T15:09:24;2.70;;;1.27;;
51883;SDS011;37915;53.254;6.598;2022-08-18T15:11:50;4.43;;;1.48;;
51883;SDS011;37915;53.254;6.598;2022-08-18T15:14:16;2.78;;;1.40;;
51883;SDS011;37915;53.254;6.598;2022-08-18T15:16:42;3.25;;;1.40;;
51883;SDS011;37915;53.254;6.598;2022-08-18T15:19:08;4.60;;;1.73;;
51883;SDS011;37915;53.254;6.598;2022-08-18T15:21:34;2.42;;;1.17;;
51883;SDS011;37915;53.254;6.598;2022-08-18T15:24:18;4.22;;;1.50;;
51883;SDS011;37915;53.254;6.598;2022-08-18T15:27:02;3.63;;;1.25;;
51883;SDS011;37915;53.254;6.598;2022-08-18T15:29:29;2.72;;;1.30;;
51883;SDS011;37915;53.254;6.598;2022-08-18T15:31:56;5.10;;;1.50;;
51883;SDS011;37915;53.254;6.598;2022-08-18T15:34:23;4.35;;;1.58;;
51883;SDS011;37915;53.254;6.598;2022-08-18T15:36:48;4.45;;;1.90;;
51883;SDS011;37915;53.254;6.598;2022-08-18T15:39:14;5.32;;;2.20;;
51883;SDS011;37915;53.254;6.598;2022-08-18T15:41:42;4.35;;;1.85;;
51883;SDS011;37915;53.254;6.598;2022-08-18T15:44:14;5.13;;;1.95;;
51883;SDS011;37915;53.254;6.598;2022-08-18T15:46:44;5.00;;;2.10;;
51883;SDS011;37915;53.254;6.598;2022-08-18T15:49:10;4.25;;;1.80;;
51883;SDS011;37915;53.254;6.598;2022-08-18T15:51:37;4.30;;;1.60;;
51883;SDS011;37915;53.254;6.598;2022-08-18T15:54:05;3.08;;;1.50;;
51883;SDS011;37915;53.254;6.598;2022-08-18T15:56:31;4.13;;;1.55;;
51883;SDS011;37915;53.254;6.598;2022-08-18T15:58:58;3.67;;;1.10;;
51883;SDS011;37915;53.254;6.598;2022-08-18T16:01:28;3.22;;;1.50;;
51883;SDS011;37915;53.254;6.598;2022-08-18T16:03:53;3.30;;;1.50;;
51883;SDS011;37915;53.254;6.598;2022-08-18T16:06:21;4.20;;;1.70;;
51883;SDS011;37915;53.254;6.598;2022-08-18T16:08:49;2.65;;;1.20;;
51883;SDS011;37915;53.254;6.598;2022-08-18T16:11:15;4.38;;;1.38;;
51883;SDS011;37915;53.254;6.598;2022-08-18T16:13:43;3.63;;;1.35;;
51883;SDS011;37915;53.254;6.598;2022-08-18T16:16:10;3.35;;;1.30;;
51883;SDS011;37915;53.254;6.598;2022-08-18T16:18:38;2.63;;;1.35;;
51883;SDS011;37915;53.254;6.598;2022-08-18T16:21:05;4.57;;;1.38;;
51883;SDS011;37915;53.254;6.598;2022-08-18T16:23:40;3.80;;;1.75;;
51883;SDS011;37915;53.254;6.598;2022-08-18T16:26:09;3.40;;;1.58;;
51883;SDS011;37915;53.254;6.598;2022-08-18T16:28:42;3.90;;;1.63;;
51883;SDS011;37915;53.254;6.598;2022-08-18T16:31:09;2.25;;;1.00;;
51883;SDS011;37915;53.254;6.598;2022-08-18T16:33:39;3.88;;;1.27;;
51883;SDS011;37915;53.254;6.598;2022-08-18T16:36:09;2.90;;;1.20;;
51883;SDS011;37915;53.254;6.598;2022-08-18T16:38:38;4.47;;;1.55;;
51883;SDS011;37915;53.254;6.598;2022-08-18T16:41:08;2.67;;;1.30;;
51883;SDS011;37915;53.254;6.598;2022-08-18T16:56:47;3.45;;;1.33;;
51883;SDS011;37915;53.254;6.598;2022-08-18T16:59:12;2.75;;;1.30;;
51883;SDS011;37915;53.254;6.598;2022-08-18T17:01:56;2.60;;;1.40;;
51883;SDS011;37915;53.254;6.598;2022-08-18T17:04:43;4.30;;;1.38;;
51883;SDS011;37915;53.254;6.598;2022-08-18T17:07:09;4.20;;;1.67;;
51883;SDS011;37915;53.254;6.598;2022-08-18T17:09:34;4.53;;;1.80;;
51883;SDS011;37915;53.254;6.598;2022-08-18T17:12:00;4.03;;;1.30;;
51883;SDS011;37915;53.254;6.598;2022-08-18T17:14:27;4.05;;;1.38;;
51883;SDS011;37915;53.254;6.598;2022-08-18T17:16:54;4.28;;;1.58;;
51883;SDS011;37915;53.254;6.598;2022-08-18T17:19:22;3.35;;;1.73;;
51883;SDS011;37915;53.254;6.598;2022-08-18T17:21:50;2.97;;;1.52;;
51883;SDS011;37915;53.254;6.598;2022-08-18T17:24:16;3.45;;;1.45;;
51883;SDS011;37915;53.254;6.598;2022-08-18T17:26:55;2.78;;;1.30;;
51883;SDS011;37915;53.254;6.598;2022-08-18T17:29:26;3.80;;;1.50;;
51883;SDS011;37915;53.254;6.598;2022-08-18T17:32:13;4.13;;;1.67;;
51883;SDS011;37915;53.254;6.598;2022-08-18T17:34:44;3.83;;;1.52;;
51883;SDS011;37915;53.254;6.598;2022-08-18T17:37:22;3.08;;;1.52;;
51883;SDS011;37915;53.254;6.598;2022-08-18T17:42:17;4.43;;;1.67;;
51883;SDS011;37915;53.254;6.598;2022-08-18T17:44:57;4.63;;;1.70;;
51883;SDS011;37915;53.254;6.598;2022-08-18T17:47:43;6.68;;;1.90;;
51883;SDS011;37915;53.254;6.598;2022-08-18T17:53:10;3.17;;;1.67;;
51883;SDS011;37915;53.254;6.598;2022-08-18T17:58:39;2.80;;;1.30;;
51883;SDS011;37915;53.254;6.598;2022-08-18T18:01:16;3.22;;;1.40;;
51883;SDS011;37915;53.254;6.598;2022-08-18T18:03:42;3.78;;;1.90;;
51883;SDS011;37915;53.254;6.598;2022-08-18T18:06:10;6.22;;;1.70;;
51883;SDS011;37915;53.254;6.598;2022-08-18T18:08:51;4.90;;;1.48;;
51883;SDS011;37915;53.254;6.598;2022-08-18T18:11:22;6.45;;;1.83;;
51883;SDS011;37915;53.254;6.598;2022-08-18T18:13:52;4.10;;;1.63;;
51883;SDS011;37915;53.254;6.598;2022-08-18T18:16:24;4.10;;;1.80;;
51883;SDS011;37915;53.254;6.598;2022-08-18T18:19:03;3.63;;;1.73;;
51883;SDS011;37915;53.254;6.598;2022-08-18T18:21:31;4.07;;;1.67;;
51883;SDS011;37915;53.254;6.598;2022-08-18T18:26:35;4.93;;;1.88;;
51883;SDS011;37915;53.254;6.598;2022-08-18T18:29:14;5.22;;;1.90;;
51883;SDS011;37915;53.254;6.598;2022-08-18T18:36:54;7.05;;;2.20;;
51883;SDS011;37915;53.254;6.598;2022-08-18T18:39:26;5.30;;;2.28;;
51883;SDS011;37915;53.254;6.598;2022-08-18T18:41:52;4.93;;;1.90;;
51883;SDS011;37915;53.254;6.598;2022-08-18T18:44:25;5.95;;;2.08;;
51883;SDS011;37915;53.254;6.598;2022-08-18T18:47:07;5.13;;;1.98;;
51883;SDS011;37915;53.254;6.598;2022-08-18T18:49:54;7.35;;;2.47;;
51883;SDS011;37915;53.254;6.598;2022-08-18T18:55:18;4.55;;;1.67;;
51883;SDS011;37915;53.254;6.598;2022-08-18T18:57:58;4.03;;;1.95;;
51883;SDS011;37915;53.254;6.598;2022-08-18T19:00:55;4.25;;;2.15;;
51883;SDS011;37915;53.254;6.598;2022-08-18T19:06:30;6.03;;;2.00;;
51883;SDS011;37915;53.254;6.598;2022-08-18T19:09:14;4.25;;;2.00;;
51883;SDS011;37915;53.254;6.598;2022-08-18T19:14:30;6.38;;;1.98;;
51883;SDS011;37915;53.254;6.598;2022-08-18T19:19:41;5.38;;;2.10;;
51883;SDS011;37915;53.254;6.598;2022-08-18T19:24:59;4.78;;;2.40;;
51883;SDS011;37915;53.254;6.598;2022-08-18T19:27:32;7.20;;;1.90;;
51883;SDS011;37915;53.254;6.598;2022-08-18T19:30:09;4.55;;;2.03;;